Manteno, IL (60950)

12:49 AM CST on February 09, 2016 (GMT -0600)
flat farm country | | Change Station
CLOSE
Current Station
Personal Weather Station
Location: Bourbonnais, IL
Elevation: 663 ft
Nearby Weather Stations
Active Advisory: Special Statement

Elev 663 ft 41.19 °N, 87.82 °W | Updated 9 seconds ago

Overcast
Overcast
25.5 °F
Feels Like 16 °F
N
8.9
Wind Variable Wind from WSW
Gusts 12.3 mph

Today
High -- | Low -- °F
--% Chance of Precip.
Yesterday
High -- | Low -- °F
Precip. -- in
Pressure 29.76 in
Visibility 10.0 miles
Clouds Mostly Cloudy 1800 ft
Overcast 2900 ft
Windchill 16 °F
Dew Point 0 °F
Humidity 33%
Rainfall 0.00 in
Snow Depth Not available.
6:54 AM 5:17 PM
New Moon, 1% visible
METAR KIKK 090635Z AUTO 28007KT 10SM UP BKN018 OVC029 M05/M08 A2976 RMK AO2 T10501077
Pressure 29.76 in
Visibility 10.0 miles
Clouds Mostly Cloudy 1800 ft
Overcast 2900 ft
Windchill 16 °F
Dew Point 0 °F
Humidity 33%
Rainfall 0.00 in
Snow Depth Not available.
6:54 AM 5:17 PM
New Moon, 1% visible
METAR KIKK 090635Z AUTO 28007KT 10SM UP BKN018 OVC029 M05/M08 A2976 RMK AO2 T10501077

10-Day Weather Forecast

Almanac

Astronomy

Feb. 09, 2016 Rise Set
Actual Time
Civil Twilight
Nautical Twilight
Astronomical Twilight
Moon
Length of Visible Light
Length of Day
Tomorrow will be .
, % of the Moon is Illuminated

Today's Extremes

State Highs State Lows

Community

WunderPhotos

Upload Photos

1,891,571 photos uploaded!

WunderBlog® & News

Nearby

Air Quality

  Air Quality AQ Index Pollutant
Not available.

Snow Depth

Station Depth Elevation

Earthquake Activity

City Distance Mag. Time & Date
Minimum magnitude displayed is 2.5.

Coastal Water Temperatures

Place Temperature

Stations

Nearby Weather Stations

Station Location Temp. Windchill Dew Point Humidity Wind Precip. Elev Updated Type
                   

Watches & Warnings

Special Statement
Issued: 4:07 PM EST Feb. 8, 2016 – National Weather Service

... Light snow likely tonight into early Tuesday...

Light snow is likely tonight into Tuesday morning with some minor
accumulations of an inch or so possible. Light snow will likely
have an adverse impact on the Tuesday morning rush hour.


307 PM CST Mon Feb 8 2016 /407 PM EST Mon Feb 8 2016/

... Light snow likely tonight into early Tuesday...

Light snow is likely tonight into Tuesday morning with some minor
accumulations of an inch or so possible. Light snow will likely
have an adverse impact on the Tuesday morning rush hour.